createdAt,value
2023-04-24T00:00:16.948Z,57.95
2023-04-24T00:01:16.905Z,41.90
2023-04-24T00:02:16.975Z,39.24
2023-04-24T00:03:16.969Z,39.69
2023-04-24T00:04:16.979Z,43.29
2023-04-24T00:05:16.898Z,47.08
2023-04-24T00:06:16.863Z,41.07
2023-04-24T00:07:16.864Z,47.91
2023-04-24T00:08:16.847Z,42.77
2023-04-24T00:09:16.851Z,41.16
2023-04-24T00:10:16.893Z,38.89
2023-04-24T00:11:16.832Z,41.76
2023-04-24T00:12:16.828Z,38.54
2023-04-24T00:13:16.827Z,38.59
2023-04-24T00:14:16.816Z,53.77
2023-04-24T00:15:16.827Z,40.32
2023-04-24T00:16:16.803Z,45.36
2023-04-24T00:17:16.783Z,46.44
2023-04-24T00:18:16.797Z,45.53
2023-04-24T00:19:16.768Z,55.60
2023-04-24T00:20:16.792Z,39.26
2023-04-24T00:21:16.752Z,44.90
2023-04-24T00:22:16.760Z,38.40
2023-04-24T00:23:16.748Z,43.35
2023-04-24T00:24:16.730Z,43.98
2023-04-24T00:25:16.756Z,44.00
2023-04-24T00:26:16.721Z,40.43
2023-04-24T00:27:16.731Z,49.07
2023-04-24T00:28:16.699Z,38.52
2023-04-24T00:29:16.743Z,44.77
2023-04-24T00:30:16.722Z,38.13
2023-04-24T00:31:16.683Z,52.56
2023-04-24T00:32:16.706Z,39.34
2023-04-24T00:33:16.656Z,41.48
2023-04-24T00:34:16.656Z,44.57
2023-04-24T00:35:16.667Z,45.60
2023-04-24T00:36:16.640Z,40.92
2023-04-24T00:37:16.632Z,41.23
2023-04-24T00:38:16.636Z,38.14
2023-04-24T00:39:16.615Z,53.74
2023-04-24T00:40:16.637Z,38.73
2023-04-24T00:41:16.609Z,43.37
2023-04-24T00:42:16.595Z,46.07
2023-04-24T00:43:16.600Z,50.90
2023-04-24T00:44:16.573Z,41.01
2023-04-24T00:45:16.600Z,40.87
2023-04-24T00:46:16.585Z,43.13
2023-04-24T00:47:16.562Z,56.43
2023-04-24T00:48:16.596Z,39.74
2023-04-24T00:49:16.549Z,43.63
2023-04-24T00:50:16.565Z,61.41
2023-04-24T00:51:16.526Z,43.06
2023-04-24T00:52:16.525Z,42.12
2023-04-24T00:53:16.522Z,40.58
2023-04-24T00:54:16.507Z,58.74
2023-04-24T00:55:16.529Z,47.06
2023-04-24T00:56:16.496Z,45.11
2023-04-24T00:57:16.485Z,46.01
2023-04-24T00:58:16.480Z,37.80
2023-04-24T00:59:16.474Z,45.45
2023-04-24T01:00:16.482Z,39.74
2023-04-24T01:01:16.505Z,37.52
2023-04-24T01:02:16.540Z,43.07
2023-04-24T01:03:16.594Z,42.91
2023-04-24T01:04:16.535Z,44.14
2023-04-24T01:05:16.453Z,41.53
2023-04-24T01:06:16.444Z,36.02
2023-04-24T01:07:16.409Z,36.81
2023-04-24T01:08:16.404Z,44.69
2023-04-24T01:09:16.403Z,39.42
2023-04-24T01:10:16.425Z,48.84
2023-04-24T01:11:16.387Z,38.96
2023-04-24T01:12:16.371Z,40.43
2023-04-24T01:13:16.368Z,37.24
2023-04-24T01:14:16.372Z,36.72
2023-04-24T01:15:16.389Z,37.84
2023-04-24T01:16:16.364Z,37.49
2023-04-24T01:17:16.809Z,37.44
2023-04-24T01:18:16.338Z,42.97
2023-04-24T01:19:16.321Z,42.20
2023-04-24T01:20:16.340Z,42.46
2023-04-24T01:21:16.315Z,37.94
2023-04-24T01:22:16.311Z,37.73
2023-04-24T01:23:16.292Z,37.59
2023-04-24T01:24:16.291Z,42.85
2023-04-24T01:25:16.321Z,39.31
2023-04-24T01:26:16.283Z,41.44
2023-04-24T01:27:16.266Z,39.56
2023-04-24T01:28:16.259Z,38.10
2023-04-24T01:29:16.246Z,45.79
2023-04-24T01:30:16.277Z,40.06
2023-04-24T01:31:16.268Z,53.19
2023-04-24T01:32:16.230Z,40.08
2023-04-24T01:33:16.220Z,42.98
2023-04-24T01:34:16.212Z,48.88
2023-04-24T01:35:16.234Z,55.02
2023-04-24T01:36:16.199Z,41.64
2023-04-24T01:37:16.203Z,43.53
2023-04-24T01:38:16.189Z,48.84
2023-04-24T01:39:16.185Z,39.15
2023-04-24T01:40:16.209Z,46.01
2023-04-24T01:41:16.166Z,38.81
2023-04-24T01:42:16.158Z,39.75
2023-04-24T01:43:16.148Z,44.61
2023-04-24T01:44:16.144Z,55.70
2023-04-24T01:45:16.151Z,44.47
2023-04-24T01:46:16.171Z,39.21
2023-04-24T01:47:16.112Z,44.24
2023-04-24T01:48:17.112Z,44.61
2023-04-24T01:49:16.096Z,53.31
2023-04-24T01:50:16.101Z,49.36
2023-04-24T01:51:16.116Z,47.51
2023-04-24T01:52:16.081Z,39.35
2023-04-24T01:53:16.075Z,45.34
2023-04-24T01:54:16.078Z,45.90
2023-04-24T01:55:16.059Z,48.43
2023-04-24T01:56:16.087Z,43.37
2023-04-24T01:57:16.042Z,54.32
2023-04-24T01:58:16.035Z,47.34
2023-04-24T01:59:16.024Z,50.33
2023-04-24T02:00:16.015Z,48.18
2023-04-24T02:01:16.102Z,59.49
2023-04-24T02:02:16.062Z,42.05
2023-04-24T02:03:16.264Z,55.19
2023-04-24T02:04:16.151Z,39.36
2023-04-24T02:05:15.980Z,47.47
2023-04-24T02:06:15.997Z,46.41
2023-04-24T02:07:15.968Z,38.54
2023-04-24T02:08:15.957Z,45.05
2023-04-24T02:09:15.945Z,40.54
2023-04-24T02:10:16.971Z,41.03
2023-04-24T02:11:15.992Z,48.52
2023-04-24T02:12:16.937Z,42.06
2023-04-24T02:13:15.929Z,37.75
2023-04-24T02:14:15.918Z,39.83
2023-04-24T02:15:15.907Z,48.71
2023-04-24T02:16:15.929Z,40.37
2023-04-24T02:17:15.894Z,47.96
2023-04-24T02:18:15.880Z,41.71
2023-04-24T02:19:15.871Z,43.65
2023-04-24T02:20:15.887Z,46.96
2023-04-24T02:21:15.900Z,43.14
2023-04-24T02:22:15.853Z,41.94
2023-04-24T02:23:15.855Z,42.12
2023-04-24T02:24:15.840Z,49.16
2023-04-24T02:25:15.829Z,44.93
2023-04-24T02:26:15.851Z,41.43
2023-04-24T02:27:15.823Z,46.92
2023-04-24T02:28:15.804Z,45.29
2023-04-24T02:29:15.798Z,46.47
2023-04-24T02:30:15.796Z,51.76
2023-04-24T02:31:15.823Z,44.56
2023-04-24T02:32:15.812Z,43.12
2023-04-24T02:33:15.770Z,47.14
2023-04-24T02:34:15.759Z,47.14
2023-04-24T02:35:15.785Z,54.60
2023-04-24T02:36:15.762Z,49.56
2023-04-24T02:37:15.738Z,46.08
2023-04-24T02:38:15.732Z,48.88
2023-04-24T02:39:15.730Z,42.86
2023-04-24T02:40:15.712Z,51.85
2023-04-24T02:41:15.715Z,57.26
2023-04-24T02:42:15.726Z,43.51
2023-04-24T02:43:15.729Z,47.09
2023-04-24T02:44:15.683Z,47.26
2023-04-24T02:45:15.680Z,43.55
2023-04-24T02:46:15.678Z,49.02
2023-04-24T02:47:15.690Z,51.40
2023-04-24T02:48:15.650Z,44.34
2023-04-24T02:49:15.647Z,49.21
2023-04-24T02:50:15.638Z,54.74
2023-04-24T02:51:15.643Z,56.59
2023-04-24T02:52:15.672Z,55.69
2023-04-24T02:53:15.622Z,54.32
2023-04-24T02:54:15.610Z,54.56
2023-04-24T02:55:15.602Z,48.35
2023-04-24T02:56:15.628Z,54.80
2023-04-24T02:57:15.592Z,46.65
2023-04-24T02:58:15.580Z,50.99
2023-04-24T02:59:15.578Z,51.76
2023-04-24T03:00:15.575Z,47.74
2023-04-24T03:01:15.602Z,48.00
2023-04-24T03:02:15.656Z,57.72
2023-04-24T03:03:15.617Z,52.49
2023-04-24T03:04:15.612Z,50.55
2023-04-24T03:05:15.561Z,48.18
2023-04-24T03:06:15.560Z,54.60
2023-04-24T03:07:15.517Z,48.95
2023-04-24T03:08:15.520Z,51.41
2023-04-24T03:09:15.508Z,44.73
2023-04-24T03:10:15.493Z,47.79
2023-04-24T03:11:15.515Z,51.36
2023-04-24T03:12:15.484Z,52.86
2023-04-24T03:13:15.468Z,49.73
2023-04-24T03:14:15.463Z,51.26
2023-04-24T03:15:15.468Z,52.69
2023-04-24T03:16:15.518Z,51.57
2023-04-24T03:17:15.442Z,51.42
2023-04-24T03:18:15.540Z,50.03
2023-04-24T03:19:15.423Z,52.42
2023-04-24T03:20:15.412Z,50.73
2023-04-24T03:21:15.444Z,52.51
2023-04-24T03:22:15.405Z,53.20
2023-04-24T03:23:15.398Z,53.10
2023-04-24T03:24:15.393Z,53.19
2023-04-24T03:25:15.420Z,53.12
2023-04-24T03:26:15.428Z,53.71
2023-04-24T03:27:15.380Z,54.03
2023-04-24T03:28:15.368Z,52.86
2023-04-24T03:29:15.351Z,57.09
2023-04-24T03:30:15.348Z,51.47
2023-04-24T03:31:15.378Z,54.22
2023-04-24T03:32:15.361Z,55.98
2023-04-24T03:33:15.326Z,55.08
2023-04-24T03:34:15.314Z,60.46
2023-04-24T03:35:15.308Z,53.78
2023-04-24T03:36:15.327Z,55.55
2023-04-24T03:37:15.307Z,54.46
2023-04-24T03:38:15.285Z,52.90
2023-04-24T03:39:15.275Z,54.55
2023-04-24T03:40:15.280Z,51.94
2023-04-24T03:41:15.288Z,56.06
2023-04-24T03:42:15.253Z,50.94
2023-04-24T03:43:15.249Z,55.70
2023-04-24T03:44:15.235Z,55.56
2023-04-24T03:45:15.240Z,56.19
2023-04-24T03:46:15.289Z,53.36
2023-04-24T03:47:15.221Z,54.23
2023-04-24T03:48:15.211Z,55.42
2023-04-24T03:49:15.201Z,54.34
2023-04-24T03:50:15.209Z,53.71
2023-04-24T03:51:15.218Z,53.64
2023-04-24T03:52:15.180Z,53.91
2023-04-24T03:53:15.201Z,51.85
2023-04-24T03:54:15.180Z,54.00
2023-04-24T03:55:15.158Z,53.42
2023-04-24T03:56:15.178Z,52.41
2023-04-24T03:57:15.148Z,61.60
2023-04-24T03:58:15.135Z,54.84
2023-04-24T03:59:15.121Z,56.24
2023-04-24T04:00:15.122Z,55.76
2023-04-24T04:01:15.166Z,58.31
2023-04-24T04:02:15.254Z,53.49
2023-04-24T04:03:15.223Z,52.12
2023-04-24T04:04:15.246Z,51.83
2023-04-24T04:05:15.154Z,54.70
2023-04-24T04:06:15.091Z,59.80
2023-04-24T04:07:15.099Z,55.24
2023-04-24T04:08:15.069Z,54.42
2023-04-24T04:09:15.055Z,53.51
2023-04-24T04:10:15.050Z,54.38
2023-04-24T04:11:15.047Z,51.19
2023-04-24T04:12:15.061Z,54.24
2023-04-24T04:13:15.022Z,56.33
2023-04-24T04:14:15.019Z,53.00
2023-04-24T04:15:15.014Z,54.38
2023-04-24T04:16:15.015Z,57.19
2023-04-24T04:17:15.027Z,57.15
2023-04-24T04:18:15.020Z,53.25
2023-04-24T04:19:14.994Z,54.82
2023-04-24T04:20:14.969Z,56.63
2023-04-24T04:21:14.980Z,57.23
2023-04-24T04:22:14.982Z,53.13
2023-04-24T04:23:14.950Z,57.45
2023-04-24T04:24:14.931Z,55.12
2023-04-24T04:25:14.940Z,57.34
2023-04-24T04:26:14.924Z,57.67
2023-04-24T04:27:14.932Z,55.92
2023-04-24T04:28:14.915Z,55.10
2023-04-24T04:29:16.793Z,54.85
2023-04-24T04:30:14.899Z,59.88
2023-04-24T04:31:14.887Z,53.96
2023-04-24T04:32:14.947Z,54.31
2023-04-24T04:33:14.937Z,55.08
2023-04-24T04:34:14.861Z,59.35
2023-04-24T04:35:14.852Z,56.28
2023-04-24T04:36:14.881Z,54.83
2023-04-24T04:37:14.837Z,57.06
2023-04-24T04:38:14.829Z,54.62
2023-04-24T04:39:14.817Z,61.51
2023-04-24T04:40:14.811Z,55.09
2023-04-24T04:41:14.829Z,57.81
2023-04-24T04:42:14.810Z,56.99
2023-04-24T04:43:14.794Z,60.17
2023-04-24T04:44:14.783Z,56.73
2023-04-24T04:45:14.785Z,56.29
2023-04-24T04:46:14.850Z,56.91
2023-04-24T04:47:14.769Z,57.13
2023-04-24T04:48:14.758Z,58.04
2023-04-24T04:49:14.772Z,57.17
2023-04-24T04:50:14.746Z,58.15
2023-04-24T04:51:14.721Z,56.26
2023-04-24T04:52:15.760Z,57.87
2023-04-24T04:53:14.717Z,55.11
2023-04-24T04:54:14.710Z,61.03
2023-04-24T04:55:14.707Z,55.98
2023-04-24T04:56:14.698Z,52.11
2023-04-24T04:57:14.729Z,57.87
2023-04-24T04:58:14.757Z,56.36
2023-04-24T04:59:14.678Z,57.64
2023-04-24T05:00:14.685Z,54.56
2023-04-24T05:01:14.689Z,56.17
2023-04-24T05:02:14.757Z,56.11
2023-04-24T05:03:20.702Z,55.49
2023-04-24T05:04:16.875Z,57.75
2023-04-24T05:05:14.701Z,54.43
2023-04-24T05:06:14.650Z,56.80
2023-04-24T05:07:14.645Z,56.30
2023-04-24T05:08:25.889Z,56.56
2023-04-24T05:09:16.604Z,55.55
2023-04-24T05:10:14.596Z,56.63
2023-04-24T05:11:14.589Z,54.93
2023-04-24T05:12:14.616Z,49.12
2023-04-24T05:13:14.572Z,54.81
2023-04-24T05:14:14.557Z,58.25
2023-04-24T05:15:14.554Z,55.98
2023-04-24T05:16:14.547Z,55.08
2023-04-24T05:17:14.690Z,57.67
2023-04-24T05:18:14.590Z,54.98
2023-04-24T05:19:14.522Z,55.08
2023-04-24T05:20:14.522Z,57.58
2023-04-24T05:21:14.519Z,56.31
2023-04-24T05:22:14.528Z,57.23
2023-04-24T05:23:47.135Z,56.75
2023-04-24T05:24:14.482Z,53.44
2023-04-24T05:25:14.476Z,55.82
2023-04-24T05:26:14.464Z,56.67
2023-04-24T05:27:14.555Z,57.52
2023-04-24T05:28:14.458Z,54.86
2023-04-24T05:29:14.451Z,52.24
2023-04-24T05:30:14.446Z,55.06
2023-04-24T05:31:14.459Z,55.09
2023-04-24T05:32:14.457Z,58.24
2023-04-24T05:33:14.417Z,55.77
2023-04-24T05:34:14.413Z,55.11
2023-04-24T05:35:14.412Z,58.19
2023-04-24T05:36:14.400Z,58.61
2023-04-24T05:37:14.410Z,55.36
2023-04-24T05:38:14.395Z,54.38
2023-04-24T05:39:14.379Z,57.48
2023-04-24T05:40:14.360Z,54.96
2023-04-24T05:41:14.349Z,56.81
2023-04-24T05:42:14.384Z,61.22
2023-04-24T05:43:14.337Z,56.07
2023-04-24T05:44:14.337Z,56.32
2023-04-24T05:45:14.322Z,57.53
2023-04-24T05:46:14.367Z,53.09
2023-04-24T05:47:14.332Z,57.10
2023-04-24T05:48:14.306Z,52.12
2023-04-24T05:49:14.313Z,56.20
2023-04-24T05:50:14.283Z,55.52
2023-04-24T05:51:14.285Z,56.18
2023-04-24T05:52:14.296Z,56.38
2023-04-24T05:53:14.259Z,57.52
2023-04-24T05:54:14.257Z,52.44
2023-04-24T05:55:14.243Z,55.85
2023-04-24T05:56:14.246Z,56.68
2023-04-24T05:57:14.259Z,53.45
2023-04-24T05:58:14.223Z,54.36
2023-04-24T05:59:14.225Z,55.22
2023-04-24T06:00:16.039Z,59.11
2023-04-24T06:01:14.206Z,56.14
2023-04-24T06:02:14.270Z,53.09
2023-04-24T06:03:14.427Z,55.29
2023-04-24T06:04:14.808Z,53.45
2023-04-24T06:05:14.190Z,57.28
2023-04-24T06:06:14.161Z,57.29
2023-04-24T06:07:14.226Z,55.69
2023-04-24T06:08:14.148Z,53.64
2023-04-24T06:09:14.158Z,55.19
2023-04-24T06:10:14.141Z,55.63
2023-04-24T06:11:14.144Z,57.73
2023-04-24T06:12:14.140Z,51.11
2023-04-24T06:13:14.124Z,53.81
2023-04-24T06:14:14.094Z,54.23
2023-04-24T06:15:14.112Z,55.62
2023-04-24T06:16:14.120Z,56.57
2023-04-24T06:17:14.099Z,51.15
2023-04-24T06:18:14.058Z,54.39
2023-04-24T06:19:15.073Z,56.49
2023-04-24T06:20:14.058Z,54.99
2023-04-24T06:21:14.083Z,56.45
2023-04-24T06:22:14.061Z,57.70
2023-04-24T06:23:14.041Z,51.95
2023-04-24T06:24:14.037Z,56.19
2023-04-24T06:25:14.021Z,54.97
2023-04-24T06:26:14.049Z,54.97
2023-04-24T06:27:15.735Z,60.20
2023-04-24T06:28:14.000Z,53.39
2023-04-24T06:29:13.992Z,51.10
2023-04-24T06:30:13.981Z,54.73
2023-04-24T06:31:13.989Z,51.98
2023-04-24T06:32:15.177Z,56.38
2023-04-24T06:33:21.063Z,50.11
2023-04-24T06:34:15.941Z,52.95
2023-04-24T06:35:13.948Z,56.90
2023-04-24T06:36:13.973Z,53.96
2023-04-24T06:37:13.950Z,55.13
2023-04-24T06:38:13.928Z,55.98
2023-04-24T06:39:13.899Z,55.30
2023-04-24T06:40:13.897Z,56.96
2023-04-24T06:41:13.913Z,54.60
2023-04-24T06:42:13.904Z,55.11
2023-04-24T06:43:13.882Z,53.90
2023-04-24T06:44:13.874Z,55.90
2023-04-24T06:45:13.885Z,53.59
2023-04-24T06:46:13.952Z,55.71
2023-04-24T06:47:14.756Z,56.57
2023-04-24T06:48:13.834Z,54.11
2023-04-24T06:49:13.827Z,54.92
2023-04-24T06:50:13.839Z,52.20
2023-04-24T06:51:13.831Z,54.82
2023-04-24T06:52:13.925Z,51.73
2023-04-24T06:53:13.873Z,55.41
2023-04-24T06:54:13.798Z,54.89
2023-04-24T06:55:13.770Z,50.40
2023-04-24T06:56:13.785Z,55.03
2023-04-24T06:57:13.788Z,52.74
2023-04-24T06:58:13.869Z,55.93
2023-04-24T06:59:13.802Z,56.26
2023-04-24T07:00:13.739Z,51.37
2023-04-24T07:01:13.856Z,53.44
2023-04-24T07:02:13.828Z,54.62
2023-04-24T07:03:13.864Z,54.40
2023-04-24T07:04:13.888Z,53.80
2023-04-24T07:05:13.722Z,54.46
2023-04-24T07:06:13.691Z,54.76
2023-04-24T07:07:13.699Z,52.67
2023-04-24T07:08:13.727Z,54.79
2023-04-24T07:09:14.273Z,49.73
2023-04-24T07:10:13.661Z,55.06
2023-04-24T07:11:13.666Z,56.13
2023-04-24T07:12:13.667Z,51.39
2023-04-24T07:13:13.674Z,57.60
2023-04-24T07:14:13.690Z,52.85
2023-04-24T07:15:13.624Z,54.36
2023-04-24T07:16:13.702Z,58.03
2023-04-24T07:17:13.639Z,53.90
2023-04-24T07:18:13.782Z,53.71
2023-04-24T07:19:13.665Z,54.48
2023-04-24T07:20:14.594Z,54.39
2023-04-24T07:21:13.585Z,53.66
2023-04-24T07:22:13.604Z,51.29
2023-04-24T07:23:13.591Z,52.96
2023-04-24T07:24:13.561Z,55.79
2023-04-24T07:25:13.554Z,55.17
2023-04-24T07:26:13.544Z,56.40
2023-04-24T07:27:13.533Z,54.46
2023-04-24T07:28:13.638Z,51.72
2023-04-24T07:29:13.516Z,54.01
2023-04-24T07:30:13.509Z,53.93
2023-04-24T07:31:13.549Z,57.04
2023-04-24T07:32:13.490Z,53.48
2023-04-24T07:33:13.541Z,51.60
2023-04-24T07:34:13.485Z,55.37
2023-04-24T07:35:13.472Z,55.04
2023-04-24T07:36:13.486Z,54.60
2023-04-24T07:37:13.456Z,54.87
2023-04-24T07:38:13.488Z,54.52
2023-04-24T07:39:13.442Z,54.34
2023-04-24T07:40:13.444Z,54.12
2023-04-24T07:41:13.419Z,55.14
2023-04-24T07:42:13.416Z,54.05
2023-04-24T07:43:13.432Z,55.61
2023-04-24T07:44:13.415Z,53.78
2023-04-24T07:45:13.402Z,52.46
2023-04-24T07:46:13.431Z,62.66
2023-04-24T07:47:13.381Z,54.48
2023-04-24T07:48:13.450Z,57.89
2023-04-24T07:49:14.495Z,55.91
2023-04-24T07:50:14.374Z,53.81
2023-04-24T07:51:13.372Z,51.62
2023-04-24T07:52:13.348Z,55.14
2023-04-24T07:53:13.347Z,53.25
2023-04-24T07:54:13.358Z,54.63
2023-04-24T07:55:13.309Z,55.28
2023-04-24T07:56:13.328Z,60.76
2023-04-24T07:57:13.407Z,58.02
2023-04-24T07:58:13.310Z,55.17
2023-04-24T07:59:13.356Z,52.89
2023-04-24T08:00:13.291Z,53.62
2023-04-24T08:01:14.004Z,53.82
2023-04-24T08:02:13.302Z,54.29
2023-04-24T08:03:13.391Z,51.83
2023-04-24T08:04:13.388Z,54.61
2023-04-24T08:05:13.452Z,53.86
2023-04-24T08:06:13.281Z,56.47
2023-04-24T08:07:13.245Z,54.87
2023-04-24T08:08:13.254Z,54.26
2023-04-24T08:09:13.219Z,56.81
2023-04-24T08:10:13.218Z,54.77
2023-04-24T08:11:13.201Z,52.91
2023-04-24T08:12:13.181Z,55.25
2023-04-24T08:13:13.238Z,53.56
2023-04-24T08:14:13.176Z,50.81
2023-04-24T08:15:13.207Z,55.20
2023-04-24T08:16:13.244Z,53.66
2023-04-24T08:17:13.308Z,53.59
2023-04-24T08:18:13.234Z,56.22
2023-04-24T08:19:14.045Z,54.96
2023-04-24T08:20:13.120Z,52.90
2023-04-24T08:21:13.270Z,53.51
2023-04-24T08:22:13.138Z,56.88
2023-04-24T08:23:13.134Z,55.45
2023-04-24T08:24:13.088Z,52.70
2023-04-24T08:25:13.089Z,52.95
2023-04-24T08:26:13.087Z,55.82
2023-04-24T08:27:13.122Z,57.20
2023-04-24T08:28:14.694Z,55.30
2023-04-24T08:29:14.214Z,56.61
2023-04-24T08:30:13.043Z,55.54
2023-04-24T08:31:13.050Z,56.79
2023-04-24T08:32:13.063Z,53.63
2023-04-24T08:33:13.031Z,54.09
2023-04-24T08:34:13.031Z,53.54
2023-04-24T08:35:13.015Z,54.23
2023-04-24T08:36:13.055Z,51.38
2023-04-24T08:37:13.006Z,53.17
2023-04-24T08:38:12.977Z,53.06
2023-04-24T08:39:12.967Z,54.54
2023-04-24T08:40:12.973Z,53.47
2023-04-24T08:41:12.960Z,54.88
2023-04-24T08:42:13.025Z,52.30
2023-04-24T08:43:12.933Z,52.85
2023-04-24T08:44:13.180Z,54.64
2023-04-24T08:45:12.942Z,54.59
2023-04-24T08:46:13.006Z,55.73
2023-04-24T08:47:15.222Z,56.61
2023-04-24T08:48:23.483Z,53.04
2023-04-24T08:49:14.933Z,52.24
2023-04-24T08:50:12.901Z,53.31
2023-04-24T08:51:12.893Z,56.10
2023-04-24T08:52:12.880Z,60.50
2023-04-24T08:53:13.032Z,55.57
2023-04-24T08:54:12.948Z,55.62
2023-04-24T08:55:12.894Z,56.25
2023-04-24T08:56:12.871Z,54.82
2023-04-24T08:57:12.837Z,56.19
2023-04-24T08:58:12.853Z,57.19
2023-04-24T08:59:12.837Z,49.71
2023-04-24T09:00:12.828Z,54.41
2023-04-24T09:01:12.859Z,56.61
2023-04-24T09:02:13.017Z,53.27
2023-04-24T09:03:12.920Z,56.54
2023-04-24T09:04:13.180Z,59.13
2023-04-24T09:05:12.766Z,54.51
2023-04-24T09:06:12.768Z,54.83
2023-04-24T09:07:12.763Z,52.48
2023-04-24T09:08:12.782Z,52.64
2023-04-24T09:09:12.773Z,52.45
2023-04-24T09:10:12.742Z,53.34
2023-04-24T09:11:12.722Z,52.37
2023-04-24T09:12:12.803Z,53.03
2023-04-24T09:13:12.746Z,53.51
2023-04-24T09:14:12.697Z,56.31
2023-04-24T09:15:12.688Z,51.40
2023-04-24T09:16:12.714Z,55.37
2023-04-24T09:17:12.783Z,50.99
2023-04-24T09:18:12.693Z,49.78
2023-04-24T09:19:13.601Z,57.36
2023-04-24T09:20:12.655Z,57.56
2023-04-24T09:21:12.645Z,55.87
2023-04-24T09:22:12.639Z,55.29
2023-04-24T09:23:12.666Z,53.77
2023-04-24T09:24:12.622Z,49.78
2023-04-24T09:25:12.611Z,55.27
2023-04-24T09:26:12.628Z,54.09
2023-04-24T09:27:12.613Z,53.30
2023-04-24T09:28:12.626Z,50.73
2023-04-24T09:29:12.587Z,53.61
2023-04-24T09:30:12.590Z,56.37
2023-04-24T09:31:12.659Z,55.35
2023-04-24T09:32:12.594Z,53.51
2023-04-24T09:33:12.599Z,54.68
2023-04-24T09:34:12.565Z,54.76
2023-04-24T09:35:12.712Z,56.45
2023-04-24T09:36:12.568Z,55.61
2023-04-24T09:37:12.542Z,51.88
2023-04-24T09:38:12.541Z,53.02
2023-04-24T09:39:12.535Z,56.38
2023-04-24T09:40:12.509Z,55.99
2023-04-24T09:41:12.504Z,52.81
2023-04-24T09:42:12.480Z,57.97
2023-04-24T09:43:12.536Z,55.30
2023-04-24T09:44:12.465Z,53.00
2023-04-24T09:45:15.378Z,55.91
2023-04-24T09:46:13.494Z,52.87
2023-04-24T09:47:12.484Z,50.74
2023-04-24T09:48:12.490Z,55.53
2023-04-24T09:49:12.431Z,52.47
2023-04-24T09:50:12.448Z,56.50
2023-04-24T09:51:12.438Z,54.66
2023-04-24T09:52:12.419Z,59.59
2023-04-24T09:53:12.433Z,55.18
2023-04-24T09:54:12.384Z,53.36
2023-04-24T09:55:12.515Z,50.97
2023-04-24T09:56:12.426Z,55.40
2023-04-24T09:57:12.393Z,51.85
2023-04-24T09:58:12.481Z,54.51
2023-04-24T09:59:12.358Z,52.14
2023-04-24T10:00:12.345Z,54.45
2023-04-24T10:01:12.388Z,49.38
2023-04-24T10:02:12.342Z,55.49
2023-04-24T10:03:12.595Z,53.20
2023-04-24T10:04:12.342Z,53.77
2023-04-24T10:05:12.321Z,55.17
2023-04-24T10:06:12.328Z,54.77
2023-04-24T10:07:12.296Z,55.60
2023-04-24T10:08:12.338Z,54.80
2023-04-24T10:09:12.276Z,53.22
2023-04-24T10:10:12.279Z,56.01
2023-04-24T10:11:12.261Z,58.12
2023-04-24T10:12:12.261Z,55.81
2023-04-24T10:13:12.363Z,58.28
2023-04-24T10:14:12.235Z,52.63
2023-04-24T10:15:12.248Z,53.52
2023-04-24T10:16:12.274Z,54.44
2023-04-24T10:17:12.217Z,52.43
2023-04-24T10:18:12.454Z,53.52
2023-04-24T10:19:12.195Z,54.17
2023-04-24T10:20:12.200Z,56.12
2023-04-24T10:21:12.186Z,53.67
2023-04-24T10:22:12.179Z,58.85
2023-04-24T10:23:12.197Z,55.29
2023-04-24T10:24:12.154Z,58.48
2023-04-24T10:25:12.164Z,54.80
2023-04-24T10:26:12.153Z,55.80
2023-04-24T10:27:12.139Z,54.60
2023-04-24T10:28:12.155Z,52.90
2023-04-24T10:29:12.120Z,51.20
2023-04-24T10:30:12.117Z,53.76
2023-04-24T10:31:12.153Z,54.69
2023-04-24T10:32:12.096Z,55.66
2023-04-24T10:33:12.170Z,55.93
2023-04-24T10:34:12.090Z,56.35
2023-04-24T10:35:12.077Z,56.63
2023-04-24T10:36:12.116Z,54.57
2023-04-24T10:37:12.082Z,53.27
2023-04-24T10:38:12.125Z,57.00
2023-04-24T10:39:12.051Z,56.71
2023-04-24T10:40:12.045Z,58.29
2023-04-24T10:41:12.041Z,54.42
2023-04-24T10:42:12.019Z,56.86
2023-04-24T10:43:12.137Z,59.48
2023-04-24T10:44:11.994Z,54.34
2023-04-24T10:45:12.003Z,56.55
2023-04-24T10:46:12.013Z,55.54
2023-04-24T10:47:12.036Z,54.05
2023-04-24T10:48:12.320Z,54.29
2023-04-24T10:49:11.994Z,53.17
2023-04-24T10:50:11.969Z,55.25
2023-04-24T10:51:11.998Z,54.70
2023-04-24T10:52:11.943Z,55.91
2023-04-24T10:53:11.972Z,56.13
2023-04-24T10:54:11.960Z,55.40
2023-04-24T10:55:11.922Z,53.11
2023-04-24T10:56:11.909Z,54.73
2023-04-24T10:57:11.902Z,54.01
2023-04-24T10:58:11.894Z,57.44
2023-04-24T10:59:11.914Z,54.51
2023-04-24T11:00:11.881Z,55.14
2023-04-24T11:01:11.958Z,54.29
2023-04-24T11:02:11.887Z,55.35
2023-04-24T11:03:11.943Z,61.22
2023-04-24T11:04:11.984Z,56.49
2023-04-24T11:05:11.841Z,57.86
2023-04-24T11:06:11.875Z,60.58
2023-04-24T11:07:11.827Z,54.39
2023-04-24T11:08:11.813Z,56.44
2023-04-24T11:09:11.829Z,54.84
2023-04-24T11:10:11.822Z,56.78
2023-04-24T11:11:11.796Z,57.26
2023-04-24T11:12:11.897Z,55.77
2023-04-24T11:13:12.808Z,56.26
2023-04-24T11:14:11.790Z,52.35
2023-04-24T11:15:11.806Z,57.27
2023-04-24T11:16:11.774Z,54.05
2023-04-24T11:17:11.744Z,50.59
2023-04-24T11:18:11.738Z,55.22
2023-04-24T11:19:11.777Z,57.21
2023-04-24T11:20:25.003Z,56.50
2023-04-24T11:21:13.779Z,56.07
2023-04-24T11:22:11.719Z,56.07
2023-04-24T11:23:20.827Z,52.52
2023-04-24T11:24:11.720Z,56.26
2023-04-24T11:25:11.716Z,58.05
2023-04-24T11:26:11.723Z,55.48
2023-04-24T11:27:11.720Z,54.43
2023-04-24T11:28:11.666Z,55.52
2023-04-24T11:29:11.688Z,55.59
2023-04-24T11:30:11.651Z,54.06
2023-04-24T11:31:11.683Z,52.33
2023-04-24T11:32:11.795Z,55.56
2023-04-24T11:33:11.732Z,57.72
2023-04-24T11:34:11.649Z,56.52
2023-04-24T11:35:11.610Z,56.08
2023-04-24T11:36:11.603Z,56.32
2023-04-24T11:37:11.625Z,56.66
2023-04-24T11:38:24.242Z,56.99
2023-04-24T11:39:13.611Z,57.78
2023-04-24T11:40:11.759Z,56.47
2023-04-24T11:41:11.558Z,53.22
2023-04-24T11:42:11.554Z,52.00
2023-04-24T11:43:12.230Z,58.29
2023-04-24T11:44:11.577Z,59.13
2023-04-24T11:45:11.548Z,56.04
2023-04-24T11:46:11.589Z,55.44
2023-04-24T11:47:11.529Z,57.59
2023-04-24T11:48:11.516Z,53.77
2023-04-24T11:49:11.504Z,54.16
2023-04-24T11:50:11.560Z,52.23
2023-04-24T11:51:11.479Z,56.91
2023-04-24T11:52:11.511Z,58.40
2023-04-24T11:53:11.475Z,59.28
2023-04-24T11:54:11.511Z,56.11
2023-04-24T11:55:11.457Z,58.33
2023-04-24T11:56:11.443Z,56.88
2023-04-24T11:57:11.430Z,54.57
2023-04-24T11:58:11.435Z,56.35
2023-04-24T11:59:11.452Z,54.90
2023-04-24T12:00:11.418Z,54.13
2023-04-24T12:01:11.398Z,55.70
2023-04-24T12:02:11.485Z,54.40
2023-04-24T12:03:11.548Z,53.65
2023-04-24T12:04:11.618Z,53.64
2023-04-24T12:05:11.703Z,55.99
2023-04-24T12:06:11.465Z,53.76
2023-04-24T12:07:11.368Z,52.73
2023-04-24T12:08:11.361Z,55.50
2023-04-24T12:09:17.670Z,53.99
2023-04-24T12:10:13.347Z,55.95
2023-04-24T12:11:11.357Z,56.08
2023-04-24T12:12:13.224Z,54.94
2023-04-24T12:13:11.442Z,52.77
2023-04-24T12:14:11.341Z,56.61
2023-04-24T12:15:11.863Z,53.64
2023-04-24T12:16:11.349Z,54.68
2023-04-24T12:17:11.276Z,56.08
2023-04-24T12:18:11.311Z,55.91
2023-04-24T12:19:11.271Z,56.01
2023-04-24T12:20:11.460Z,57.15
2023-04-24T12:21:11.273Z,57.42
2023-04-24T12:22:11.323Z,56.06
2023-04-24T12:23:11.830Z,54.11
2023-04-24T12:24:11.236Z,56.83
2023-04-24T12:25:11.247Z,57.78
2023-04-24T12:26:11.253Z,55.93
2023-04-24T12:27:11.206Z,55.75
2023-04-24T12:28:11.254Z,58.23
2023-04-24T12:29:11.248Z,54.91
2023-04-24T12:30:11.284Z,54.07
2023-04-24T12:31:11.440Z,54.79
2023-04-24T12:32:11.178Z,56.87
2023-04-24T12:33:11.197Z,54.98
2023-04-24T12:34:11.169Z,55.17
2023-04-24T12:35:11.193Z,55.70
2023-04-24T12:36:11.136Z,54.54
2023-04-24T12:37:11.137Z,57.18
2023-04-24T12:38:11.152Z,53.85
2023-04-24T12:39:11.134Z,52.63
2023-04-24T12:40:11.158Z,54.60
2023-04-24T12:41:11.119Z,56.99
2023-04-24T12:42:11.109Z,54.21
2023-04-24T12:43:11.093Z,54.88
2023-04-24T12:44:11.082Z,51.81
2023-04-24T12:45:11.099Z,56.96
2023-04-24T12:46:11.117Z,56.69
2023-04-24T12:47:11.079Z,57.86
2023-04-24T12:48:11.066Z,53.54
2023-04-24T12:49:11.055Z,55.81
2023-04-24T12:50:11.067Z,54.08
2023-04-24T12:51:11.029Z,55.42
2023-04-24T12:52:11.025Z,56.11